Time;durP1;ratioP1;P1;durP2;ratioP2;P2;SDS_P1;SDS_P2;PMS_P1;PMS_P2;Temp;Humidity;BMP_temperature;BMP_pressure;BME280_temperature;BME280_humidity;BME280_pressure;Samples;Min_cycle;Max_cycle;Signal;HPM_P1;HPM_P2
2021/05/08 00:01:35;;;;;;;2.03;0.40;;;;;;;14.61;29.99;98385.63;4971194;28;20038;-76
2021/05/08 00:04:00;;;;;;;1.10;0.35;;;;;;;14.84;30.27;98399.66;4982204;28;20030;-75
2021/05/08 00:06:26;;;;;;;2.38;0.43;;;;;;;14.88;30.66;98403.56;4976093;28;20147;-75
2021/05/08 00:08:51;;;;;;;1.70;0.40;;;;;;;14.84;29.96;98389.19;4982032;28;20034;-77
2021/05/08 00:11:16;;;;;;;1.05;0.30;;;;;;;14.79;29.84;98381.88;4977220;28;20651;-77
2021/05/08 00:13:42;;;;;;;1.17;0.35;;;;;;;14.92;29.85;98389.94;4982790;28;20034;-75
2021/05/08 00:16:07;;;;;;;1.65;0.45;;;;;;;14.92;30.47;98383.91;4969061;28;20395;-77
2021/05/08 00:18:32;;;;;;;1.88;0.50;;;;;;;14.98;31.08;98406.72;4979426;28;20030;-75
2021/05/08 00:20:58;;;;;;;1.48;0.50;;;;;;;14.93;32.01;98411.69;4997512;28;20034;-76
2021/05/08 00:23:24;;;;;;;1.13;0.40;;;;;;;14.89;32.15;98415.66;4964916;28;20026;-77
2021/05/08 00:25:49;;;;;;;1.30;0.40;;;;;;;14.70;32.92;98422.19;4982920;28;20027;-76
2021/05/08 00:28:15;;;;;;;1.05;0.35;;;;;;;14.79;32.70;98427.19;4974033;28;20049;-76
2021/05/08 00:30:40;;;;;;;0.60;0.30;;;;;;;14.88;32.19;98425.31;4977813;28;20026;-75
2021/05/08 00:33:05;;;;;;;5.47;0.40;;;;;;;14.79;33.23;98414.09;4968328;28;20757;-78
2021/05/08 00:35:31;;;;;;;1.42;0.50;;;;;;;14.83;33.04;98419.78;4972497;28;20700;-75
2021/05/08 00:37:56;;;;;;;0.93;0.35;;;;;;;14.73;33.00;98414.81;4996046;28;20030;-76
2021/05/08 00:40:21;;;;;;;2.00;0.40;;;;;;;14.86;33.07;98427.31;4980478;28;20064;-75
2021/05/08 00:42:47;;;;;;;2.92;0.50;;;;;;;14.80;33.51;98426.19;4976982;28;20098;-75
2021/05/08 00:45:13;;;;;;;1.42;0.43;;;;;;;14.68;32.91;98421.56;4977896;28;20032;-76
2021/05/08 00:47:44;;;;;;;1.27;0.40;;;;;;;14.66;32.55;98436.59;4974841;28;20040;-75
2021/05/08 00:50:11;;;;;;;1.20;0.35;;;;;;;14.68;31.78;98430.22;4973006;28;20141;-75
2021/05/08 00:52:37;;;;;;;1.70;0.40;;;;;;;14.72;31.04;98431.50;4973190;28;20129;-75
2021/05/08 00:55:04;;;;;;;1.08;0.38;;;;;;;14.56;31.35;98416.69;4981431;28;20045;-75
2021/05/08 00:57:30;;;;;;;3.38;0.50;;;;;;;14.63;31.39;98422.06;4994118;28;20583;-75
2021/05/08 00:59:55;;;;;;;1.38;0.40;;;;;;;14.68;32.08;98439.88;4976195;28;20073;-75
2021/05/08 01:02:20;;;;;;;2.72;0.50;;;;;;;14.54;32.78;98444.03;4978372;28;20035;-75
2021/05/08 01:04:46;;;;;;;0.77;0.30;;;;;;;14.59;32.38;98457.44;4972387;28;20041;-75
2021/05/08 01:07:11;;;;;;;2.30;0.57;;;;;;;14.23;32.37;98473.63;4982654;28;20068;-76
2021/05/08 01:09:37;;;;;;;0.98;0.30;;;;;;;13.92;32.08;98484.06;4962741;28;20113;-77
2021/05/08 01:12:02;;;;;;;0.77;0.30;;;;;;;13.79;31.40;98495.06;4981222;28;20046;-75
2021/05/08 01:14:27;;;;;;;2.15;0.40;;;;;;;13.67;31.00;98510.25;4971538;28;20030;-76
2021/05/08 01:16:53;;;;;;;1.42;0.40;;;;;;;13.81;31.14;98500.91;4978892;28;20042;-76
2021/05/08 01:19:20;;;;;;;1.13;0.40;;;;;;;14.04;30.40;98501.81;4962723;28;20033;-75
2021/05/08 01:21:45;;;;;;;1.13;0.40;;;;;;;14.20;29.55;98506.19;4977345;28;20058;-75
2021/05/08 01:24:11;;;;;;;1.05;0.30;;;;;;;14.20;30.46;98514.03;4973124;28;20691;-76
2021/05/08 01:26:37;;;;;;;1.23;0.40;;;;;;;14.09;31.27;98521.41;4984906;28;20045;-74
2021/05/08 01:29:03;;;;;;;1.75;0.60;;;;;;;13.97;33.05;98534.84;4973008;28;20026;-75
2021/05/08 01:31:29;;;;;;;1.08;0.30;;;;;;;13.99;31.86;98529.47;4968798;28;20023;-74
2021/05/08 01:33:54;;;;;;;1.90;0.55;;;;;;;13.91;31.58;98532.06;4979257;28;20842;-75
2021/05/08 01:36:20;;;;;;;7.38;2.35;;;;;;;13.63;32.15;98542.94;4976201;28;20040;-74
2021/05/08 01:38:45;;;;;;;1.90;0.70;;;;;;;13.59;33.30;98531.19;4977888;28;20065;-74
2021/05/08 01:41:11;;;;;;;2.05;0.50;;;;;;;13.65;34.25;98541.78;4981439;28;20480;-75
2021/05/08 01:43:37;;;;;;;2.22;0.50;;;;;;;13.74;34.79;98547.00;4975520;28;20132;-73
2021/05/08 01:46:03;;;;;;;4.57;0.70;;;;;;;13.47;30.96;98525.50;4972567;28;20026;-74
2021/05/08 01:48:30;;;;;;;4.10;0.80;;;;;;;13.78;30.63;98533.44;4978015;28;20056;-75
2021/05/08 01:50:57;;;;;;;2.90;0.60;;;;;;;13.98;31.47;98535.66;4979744;28;20030;-74
2021/05/08 01:53:22;;;;;;;2.63;0.52;;;;;;;14.03;32.24;98543.81;4981701;28;20480;-74
2021/05/08 01:55:48;;;;;;;2.50;0.60;;;;;;;13.77;32.47;98544.06;4975013;28;20037;-74
2021/05/08 01:58:13;;;;;;;1.95;0.50;;;;;;;13.70;33.09;98564.00;4980350;28;20026;-75
2021/05/08 02:00:46;;;;;;;2.35;0.50;;;;;;;13.48;35.34;98574.13;4976579;28;20039;-75
2021/05/08 02:03:13;;;;;;;2.92;0.68;;;;;;;13.41;35.09;98575.75;4970014;28;20382;-77
2021/05/08 02:05:39;;;;;;;3.70;0.80;;;;;;;13.49;34.56;98583.59;4992003;28;20539;-75
2021/05/08 02:08:06;;;;;;;4.47;1.20;;;;;;;13.49;34.69;98575.78;4980322;28;20427;-76
2021/05/08 02:10:33;;;;;;;4.30;1.20;;;;;;;13.21;34.57;98596.13;4972227;28;20140;-76
2021/05/08 02:12:59;;;;;;;3.60;1.00;;;;;;;12.88;36.06;98593.47;4974213;28;20026;-75
2021/05/08 02:15:25;;;;;;;5.05;0.93;;;;;;;12.84;36.43;98603.41;4978267;28;20135;-76
2021/05/08 02:17:51;;;;;;;2.25;0.60;;;;;;;12.56;36.70;98609.81;4969128;28;20066;-75
2021/05/08 02:20:22;;;;;;;3.60;0.90;;;;;;;12.61;37.68;98604.97;4978814;28;20399;-76
2021/05/08 02:22:47;;;;;;;2.28;0.65;;;;;;;12.77;37.22;98623.28;4978698;28;20388;-75
2021/05/08 02:25:13;;;;;;;3.10;0.90;;;;;;;12.72;37.15;98609.88;4979308;28;20168;-75
2021/05/08 02:27:39;;;;;;;3.08;0.60;;;;;;;12.82;37.05;98618.41;4968169;28;20092;-76
2021/05/08 02:30:06;;;;;;;3.25;0.60;;;;;;;12.97;35.93;98629.03;4973077;28;20057;-77
2021/05/08 02:32:32;;;;;;;4.03;0.70;;;;;;;12.92;36.86;98641.75;4968354;28;20038;-75
2021/05/08 02:34:57;;;;;;;3.75;0.70;;;;;;;12.82;37.24;98648.91;4973424;28;20030;-76
2021/05/08 02:37:23;;;;;;;2.63;0.60;;;;;;;12.42;37.53;98645.97;4975337;28;20030;-76
2021/05/08 02:39:48;;;;;;;5.28;0.50;;;;;;;12.37;38.47;98660.44;4970551;28;20468;-76
2021/05/08 02:42:14;;;;;;;1.67;0.50;;;;;;;12.32;38.57;98660.91;4981468;28;20031;-77
2021/05/08 02:44:39;;;;;;;3.15;0.60;;;;;;;12.37;38.70;98663.84;4967552;28;20069;-76
2021/05/08 02:47:16;;;;;;;2.65;0.60;;;;;;;12.33;37.47;98640.88;4975816;28;20034;-75
2021/05/08 02:49:42;;;;;;;2.85;0.60;;;;;;;12.50;37.66;98650.38;4972344;28;20023;-75
2021/05/08 02:52:07;;;;;;;2.65;0.60;;;;;;;12.41;38.55;98640.91;4976504;28;20096;-76
2021/05/08 02:54:33;;;;;;;2.75;0.60;;;;;;;12.58;37.83;98639.19;4991998;28;20528;-75
2021/05/08 02:56:58;;;;;;;1.70;0.60;;;;;;;12.60;37.02;98640.66;4975271;28;20034;-75
2021/05/08 02:59:24;;;;;;;4.07;0.70;;;;;;;12.80;37.44;98636.00;4974297;28;20679;-75
2021/05/08 03:01:49;;;;;;;2.15;0.57;;;;;;;12.89;37.07;98648.09;4975610;28;20030;-75
2021/05/08 03:04:15;;;;;;;1.90;0.60;;;;;;;12.80;38.17;98663.91;4970561;28;20035;-77
2021/05/08 03:06:40;;;;;;;3.42;0.70;;;;;;;12.78;39.13;98666.66;4971515;28;20463;-76
2021/05/08 03:09:06;;;;;;;2.67;0.60;;;;;;;12.74;37.89;98657.53;4980756;28;20030;-76
2021/05/08 03:11:31;;;;;;;2.30;0.52;;;;;;;12.61;38.24;98644.91;4981761;28;20068;-77
2021/05/08 03:13:56;;;;;;;1.27;0.45;;;;;;;12.65;38.87;98656.66;4979953;28;20037;-76
2021/05/08 03:16:22;;;;;;;2.75;0.60;;;;;;;12.64;39.18;98649.00;5003978;28;20121;-75
2021/05/08 03:18:47;;;;;;;1.55;0.50;;;;;;;12.16;40.32;98666.03;4984628;28;20022;-75
2021/05/08 03:21:15;;;;;;;3.33;0.60;;;;;;;12.10;41.12;98663.06;4981670;28;20070;-75
2021/05/08 03:23:40;;;;;;;2.17;0.70;;;;;;;12.19;40.74;98658.69;4990334;28;20637;-75
2021/05/08 03:26:06;;;;;;;3.40;0.77;;;;;;;12.28;40.40;98660.41;4977276;28;20031;-75
2021/05/08 03:28:31;;;;;;;3.65;0.80;;;;;;;12.16;41.90;98651.19;4978085;28;20031;-75
2021/05/08 03:30:57;;;;;;;2.60;0.70;;;;;;;12.26;41.19;98662.31;4971054;28;20038;-75
2021/05/08 03:33:22;;;;;;;2.70;0.70;;;;;;;12.31;40.60;98669.69;4977857;28;20030;-75
2021/05/08 03:35:50;;;;;;;2.10;0.60;;;;;;;12.53;40.28;98681.38;4991019;28;20026;-75
2021/05/08 03:38:15;;;;;;;2.70;0.50;;;;;;;12.57;39.91;98692.31;4979088;28;20050;-75
2021/05/08 03:40:41;;;;;;;2.40;0.70;;;;;;;12.63;39.62;98689.09;4962174;28;20115;-75
2021/05/08 03:43:06;;;;;;;1.23;0.50;;;;;;;12.68;39.16;98694.66;4978611;28;20027;-74
2021/05/08 03:45:32;;;;;;;3.25;0.55;;;;;;;12.63;37.50;98702.13;4975012;28;20034;-74
2021/05/08 03:47:57;;;;;;;1.58;0.50;;;;;;;12.62;37.36;98701.31;4994070;28;20129;-75
2021/05/08 03:50:22;;;;;;;1.27;0.40;;;;;;;12.72;38.10;98711.63;4973259;28;20030;-75
2021/05/08 03:52:48;;;;;;;1.42;0.57;;;;;;;12.90;37.94;98708.94;4974598;28;20034;-74
2021/05/08 03:55:13;;;;;;;1.65;0.52;;;;;;;12.80;39.12;98706.47;4974919;28;20057;-74
2021/05/08 03:57:40;;;;;;;2.38;0.55;;;;;;;12.65;39.59;98718.47;4973876;28;20038;-75
2021/05/08 04:00:06;;;;;;;1.77;0.50;;;;;;;12.71;39.07;98720.44;4976293;28;20129;-75
2021/05/08 04:02:31;;;;;;;2.90;0.60;;;;;;;12.75;39.31;98716.53;4979814;28;20029;-76
2021/05/08 04:04:57;;;;;;;1.80;0.68;;;;;;;12.84;39.56;98725.22;4975890;28;20057;-74
2021/05/08 04:07:22;;;;;;;1.98;0.50;;;;;;;13.04;39.90;98724.00;4970861;28;20427;-74
2021/05/08 04:09:48;;;;;;;2.92;0.60;;;;;;;13.08;39.88;98732.34;4972898;28;20396;-75
2021/05/08 04:12:13;;;;;;;4.75;1.00;;;;;;;13.00;40.60;98737.53;4970752;28;20070;-75
2021/05/08 04:14:39;;;;;;;3.33;0.80;;;;;;;12.87;41.29;98749.22;4970401;28;20117;-75
2021/05/08 04:17:04;;;;;;;2.97;0.88;;;;;;;12.86;40.19;98749.38;4972158;28;20146;-75
2021/05/08 04:19:30;;;;;;;2.33;0.75;;;;;;;12.73;41.51;98752.41;4957026;28;20202;-75
2021/05/08 04:21:55;;;;;;;2.78;0.60;;;;;;;12.60;41.95;98752.03;4968761;28;20089;-75
2021/05/08 04:24:21;;;;;;;3.10;0.60;;;;;;;12.27;42.51;98767.44;4972432;28;20038;-75
2021/05/08 04:26:46;;;;;;;1.58;0.57;;;;;;;12.17;43.43;98777.13;4973912;28;20169;-75
2021/05/08 04:29:12;;;;;;;1.48;0.60;;;;;;;12.26;43.09;98778.84;4963289;28;20026;-75
2021/05/08 04:31:37;;;;;;;1.95;0.60;;;;;;;12.42;42.86;98775.53;4969991;28;20026;-74
2021/05/08 04:34:03;;;;;;;2.88;0.68;;;;;;;12.25;43.31;98783.22;4972533;28;20092;-75
2021/05/08 04:36:28;;;;;;;1.63;0.57;;;;;;;11.97;44.43;98789.50;4961560;28;20027;-75
2021/05/08 04:38:54;;;;;;;1.80;0.70;;;;;;;12.01;43.45;98798.66;4976192;28;20057;-76
2021/05/08 04:41:19;;;;;;;2.95;0.80;;;;;;;12.08;42.70;98794.47;4997334;28;20038;-75
2021/05/08 04:43:44;;;;;;;2.33;0.70;;;;;;;12.33;42.27;98799.91;4974210;28;20597;-74
2021/05/08 04:46:10;;;;;;;3.95;0.70;;;;;;;12.26;42.71;98805.72;4975422;28;20022;-75
2021/05/08 04:48:35;;;;;;;2.45;0.80;;;;;;;12.32;42.59;98799.09;4971710;28;20065;-76
2021/05/08 04:51:01;;;;;;;3.60;1.00;;;;;;;12.39;42.92;98807.13;4964684;28;20467;-75
2021/05/08 04:53:27;;;;;;;1.98;0.63;;;;;;;12.04;44.52;98803.56;4978814;28;20050;-75
2021/05/08 04:55:52;;;;;;;2.45;0.70;;;;;;;12.25;44.28;98814.53;4981039;28;20402;-74
2021/05/08 04:58:19;;;;;;;3.67;0.60;;;;;;;12.39;44.09;98805.31;4981714;28;20022;-74
2021/05/08 05:00:45;;;;;;;1.80;0.60;;;;;;;12.52;44.49;98822.38;4969011;28;20026;-76
2021/05/08 05:03:10;;;;;;;2.38;0.70;;;;;;;12.59;44.76;98828.63;4971462;28;20362;-75
2021/05/08 05:05:35;;;;;;;2.42;0.75;;;;;;;12.64;44.90;98827.19;4973841;28;20076;-75
2021/05/08 05:08:01;;;;;;;2.42;0.68;;;;;;;12.56;45.27;98815.88;4970928;28;20397;-75
2021/05/08 05:10:27;;;;;;;3.63;0.90;;;;;;;12.33;46.03;98821.59;4991024;28;20030;-77
2021/05/08 05:12:52;;;;;;;2.47;0.70;;;;;;;12.37;44.95;98828.13;4981169;28;20116;-77
2021/05/08 05:15:19;;;;;;;1.70;0.60;;;;;;;12.45;45.84;98840.44;4998064;28;20021;-74
2021/05/08 05:17:45;;;;;;;2.42;0.60;;;;;;;12.43;45.91;98830.16;4982587;28;20026;-74
2021/05/08 05:20:11;;;;;;;1.77;0.60;;;;;;;12.61;45.66;98848.38;4973692;28;20105;-74
2021/05/08 05:22:37;;;;;;;1.75;0.60;;;;;;;12.66;45.54;98850.53;4982413;28;20031;-75
2021/05/08 05:25:04;;;;;;;2.78;0.60;;;;;;;12.63;44.34;98856.03;4975874;28;20096;-75
2021/05/08 05:27:33;;;;;;;2.30;0.75;;;;;;;12.70;42.63;98859.66;4962189;28;20091;-74
2021/05/08 05:29:59;;;;;;;1.52;0.55;;;;;;;12.66;42.41;98868.78;4975148;28;20050;-74
2021/05/08 05:32:24;;;;;;;1.67;0.60;;;;;;;12.76;42.16;98872.13;4977299;28;20041;-74
2021/05/08 05:34:49;;;;;;;2.55;0.60;;;;;;;12.87;41.55;98876.28;4981895;28;20022;-76
2021/05/08 05:37:15;;;;;;;2.17;0.70;;;;;;;12.57;41.48;98861.88;4989085;28;20549;-75
2021/05/08 05:39:40;;;;;;;2.70;0.70;;;;;;;12.71;42.14;98890.03;4977767;28;20539;-74
2021/05/08 05:42:06;;;;;;;2.53;0.55;;;;;;;12.67;41.66;98875.66;4966864;28;20031;-75
2021/05/08 05:44:32;;;;;;;2.67;0.65;;;;;;;12.70;41.58;98893.59;4981081;28;20800;-74
2021/05/08 05:46:57;;;;;;;1.60;0.50;;;;;;;12.71;41.46;98900.47;4965009;28;20037;-74
2021/05/08 05:49:23;;;;;;;4.85;0.65;;;;;;;12.78;41.80;98891.06;4975045;28;20054;-74
2021/05/08 05:51:51;;;;;;;2.67;0.60;;;;;;;12.72;42.84;98896.88;4973706;28;20102;-74
2021/05/08 05:54:17;;;;;;;2.13;0.70;;;;;;;12.65;43.01;98903.69;4977316;28;20499;-74
2021/05/08 05:56:42;;;;;;;1.90;0.65;;;;;;;12.63;43.15;98905.59;4975238;28;20084;-74
2021/05/08 05:59:07;;;;;;;2.97;0.63;;;;;;;12.56;42.60;98886.28;4986353;28;22177;-73
2021/05/08 06:01:33;;;;;;;2.03;0.60;;;;;;;12.63;42.76;98900.38;4994922;28;20030;-73
2021/05/08 06:03:58;;;;;;;3.08;0.80;;;;;;;12.72;43.27;98894.25;4980829;28;20038;-74
2021/05/08 06:06:24;;;;;;;2.40;0.60;;;;;;;12.85;42.62;98894.69;4975796;28;20148;-73
2021/05/08 06:08:49;;;;;;;3.08;0.60;;;;;;;12.86;42.05;98892.91;4970767;28;20022;-74
2021/05/08 06:11:15;;;;;;;3.05;0.60;;;;;;;12.86;42.23;98898.94;4979467;28;20525;-75
2021/05/08 06:13:40;;;;;;;2.10;0.68;;;;;;;12.76;42.48;98903.44;4979707;28;20056;-75
2021/05/08 06:16:08;;;;;;;2.88;0.80;;;;;;;12.83;42.75;98898.41;4985306;28;20029;-75
2021/05/08 06:18:34;;;;;;;3.33;0.90;;;;;;;12.96;42.45;98909.28;4979533;28;20049;-74
2021/05/08 06:21:00;;;;;;;6.45;0.70;;;;;;;12.91;42.37;98902.91;4996115;28;20021;-74
2021/05/08 06:23:26;;;;;;;3.65;0.73;;;;;;;12.92;43.12;98901.91;4977943;28;20542;-75
2021/05/08 06:25:51;;;;;;;2.80;0.80;;;;;;;12.96;43.05;98898.00;4970944;28;20544;-74
2021/05/08 06:28:17;;;;;;;2.00;0.60;;;;;;;12.93;43.79;98891.31;4986909;28;20034;-76
2021/05/08 06:30:43;;;;;;;2.78;0.85;;;;;;;12.75;43.74;98901.78;4981520;28;20037;-75
2021/05/08 06:33:09;;;;;;;2.67;0.75;;;;;;;12.75;44.17;98908.81;4986022;28;20104;-75
2021/05/08 06:35:34;;;;;;;3.30;0.80;;;;;;;12.54;43.26;98906.50;4976064;28;20069;-74
2021/05/08 06:37:59;;;;;;;3.78;0.80;;;;;;;12.44;43.27;98903.97;4990186;28;20035;-75
2021/05/08 06:40:26;;;;;;;2.25;0.60;;;;;;;12.31;43.04;98931.25;4978812;28;20567;-75
2021/05/08 06:42:52;;;;;;;2.97;0.80;;;;;;;12.58;43.87;98919.09;4977970;28;20030;-74
2021/05/08 06:45:17;;;;;;;3.20;0.65;;;;;;;12.75;44.34;98920.06;4981133;28;20412;-74
2021/05/08 06:47:43;;;;;;;2.15;0.70;;;;;;;12.85;43.46;98923.41;4985853;28;20054;-74
2021/05/08 06:50:09;;;;;;;2.25;0.70;;;;;;;12.93;42.21;98916.59;4976862;28;20088;-75
2021/05/08 06:52:34;;;;;;;4.20;0.77;;;;;;;12.81;43.66;98927.28;4980767;28;20022;-72
2021/05/08 06:54:59;;;;;;;2.47;0.82;;;;;;;12.65;43.26;98916.72;4973841;28;20085;-73
2021/05/08 06:57:25;;;;;;;2.42;0.60;;;;;;;12.66;42.65;98918.34;4973261;28;20030;-73
2021/05/08 06:59:50;;;;;;;4.40;0.73;;;;;;;12.77;43.44;98931.16;4981566;28;20940;-73
2021/05/08 07:02:16;;;;;;;2.10;0.70;;;;;;;12.74;42.95;98922.81;4974140;28;20030;-72
2021/05/08 07:04:41;;;;;;;2.53;0.73;;;;;;;12.93;43.77;98930.47;4973976;28;20031;-73
2021/05/08 07:07:06;;;;;;;2.55;0.85;;;;;;;12.64;43.27;98933.34;4976773;28;20038;-75
2021/05/08 07:09:32;;;;;;;3.05;1.00;;;;;;;12.66;41.92;98928.78;4971816;28;20531;-79
2021/05/08 07:11:57;;;;;;;4.30;1.10;;;;;;;12.80;41.82;98919.63;4997073;28;20015;-78
2021/05/08 07:14:23;;;;;;;4.10;1.00;;;;;;;12.84;42.67;98926.97;4977205;28;20081;-73
2021/05/08 07:16:48;;;;;;;3.92;1.00;;;;;;;13.01;42.85;98924.47;4972010;28;20027;-73
2021/05/08 07:19:14;;;;;;;3.05;0.93;;;;;;;12.98;40.90;98901.31;4967376;28;20484;-73
2021/05/08 07:21:39;;;;;;;4.22;0.82;;;;;;;13.04;40.97;98913.75;4970562;28;20023;-73
2021/05/08 07:24:08;;;;;;;3.13;1.00;;;;;;;12.97;40.32;98910.09;4973494;28;20112;-73
2021/05/08 07:26:34;;;;;;;4.00;0.95;;;;;;;13.12;40.75;98905.13;4972307;28;20066;-72
2021/05/08 07:29:00;;;;;;;2.70;0.80;;;;;;;13.27;40.17;98908.84;4987463;28;20030;-72
2021/05/08 07:31:26;;;;;;;4.10;0.85;;;;;;;13.36;39.38;98907.94;4968678;28;20543;-74
2021/05/08 07:33:52;;;;;;;3.58;0.80;;;;;;;13.31;40.14;98902.34;4976121;28;20083;-73
2021/05/08 07:36:18;;;;;;;4.35;0.90;;;;;;;13.22;40.55;98903.25;4978569;28;20068;-71
2021/05/08 07:38:44;;;;;;;3.75;0.70;;;;;;;13.14;40.68;98900.59;4974762;28;20026;-71
2021/05/08 07:41:09;;;;;;;3.05;0.60;;;;;;;13.05;41.82;98895.31;4972361;28;20484;-72
2021/05/08 07:43:35;;;;;;;3.33;0.90;;;;;;;13.33;41.76;98904.81;4980337;28;20026;-73
2021/05/08 07:46:00;;;;;;;3.30;0.90;;;;;;;13.50;40.73;98901.28;4993134;28;20026;-73
2021/05/08 07:48:27;;;;;;;3.78;0.82;;;;;;;13.60;41.22;98912.47;4975271;28;20030;-73
2021/05/08 07:50:53;;;;;;;2.75;0.80;;;;;;;13.52;40.72;98922.03;4973888;28;20153;-73
2021/05/08 07:53:18;;;;;;;3.05;0.90;;;;;;;13.65;40.23;98922.41;4974968;28;20114;-72
2021/05/08 07:55:43;;;;;;;3.47;0.82;;;;;;;13.76;41.04;98932.63;4980913;28;20076;-72
2021/05/08 07:58:09;;;;;;;4.05;1.20;;;;;;;13.58;41.11;98935.31;4973358;28;20022;-72
2021/05/08 08:00:35;;;;;;;3.38;1.20;;;;;;;13.87;41.48;98941.13;4957747;28;20038;-73
2021/05/08 08:03:01;;;;;;;4.80;1.60;;;;;;;14.16;40.28;98936.31;4974521;28;20063;-73
2021/05/08 08:05:26;;;;;;;6.30;2.45;;;;;;;14.51;39.47;98938.84;4972868;28;20023;-73
2021/05/08 08:07:52;;;;;;;4.13;1.40;;;;;;;14.37;39.08;98940.31;4977335;28;20030;-73
2021/05/08 08:10:17;;;;;;;3.92;1.50;;;;;;;14.52;38.99;98943.09;4979977;28;20030;-72
2021/05/08 08:12:43;;;;;;;4.35;1.13;;;;;;;14.79;38.33;98945.44;4980217;28;20045;-72
2021/05/08 08:15:11;;;;;;;2.75;0.82;;;;;;;14.59;39.66;98947.56;4979227;28;20392;-72
2021/05/08 08:17:37;;;;;;;2.97;0.80;;;;;;;14.95;38.43;98933.34;4980839;28;20022;-72
2021/05/08 08:20:06;;;;;;;3.60;0.90;;;;;;;15.15;38.30;98928.53;4975377;28;20495;-72
2021/05/08 08:22:31;;;;;;;2.58;0.70;;;;;;;15.10;37.15;98925.63;4981578;28;20022;-72
2021/05/08 08:24:57;;;;;;;3.30;0.70;;;;;;;15.12;37.08;98915.81;4996867;28;20037;-72
2021/05/08 08:27:23;;;;;;;3.72;0.70;;;;;;;15.11;37.75;98912.38;4990219;28;20065;-72
2021/05/08 08:29:49;;;;;;;1.58;0.55;;;;;;;15.40;37.26;98913.59;4982288;28;20495;-72
2021/05/08 08:32:14;;;;;;;2.45;0.60;;;;;;;15.67;36.75;98911.56;4971774;28;20768;-72
2021/05/08 08:34:41;;;;;;;1.15;0.50;;;;;;;15.88;35.26;98922.31;4979516;28;20082;-72
2021/05/08 08:37:07;;;;;;;1.90;0.55;;;;;;;16.08;34.54;98927.94;4969210;28;20023;-73
2021/05/08 08:39:33;;;;;;;3.92;0.70;;;;;;;16.05;34.64;98930.09;4980995;28;20032;-72
2021/05/08 08:41:59;;;;;;;1.30;0.47;;;;;;;16.31;33.89;98925.34;4978009;28;20026;-72
2021/05/08 08:44:24;;;;;;;2.00;0.55;;;;;;;16.66;33.39;98927.56;4983040;28;20433;-72
2021/05/08 08:46:50;;;;;;;2.20;0.52;;;;;;;16.72;33.80;98927.69;4976013;28;20030;-72
2021/05/08 08:49:15;;;;;;;2.38;0.60;;;;;;;16.67;31.53;98924.75;4980671;28;20022;-72
2021/05/08 08:51:42;;;;;;;1.60;0.50;;;;;;;16.71;30.44;98925.22;4969900;28;20594;-72
2021/05/08 08:54:08;;;;;;;1.23;0.50;;;;;;;17.14;31.24;98922.91;4981269;28;20023;-72
2021/05/08 08:56:40;;;;;;;1.40;0.45;;;;;;;17.23;31.28;98932.34;4978204;28;20057;-72
2021/05/08 08:59:30;;;;;;;3.28;0.70;;;;;;;17.18;31.36;98926.00;4970648;28;20073;-72
2021/05/08 09:01:54;;;;;;;3.85;0.60;;;;;;;17.27;31.47;98925.72;4973988;28;20462;-73
2021/05/08 09:04:21;;;;;;;3.60;0.70;;;;;;;17.32;30.30;98901.50;4972138;28;20030;-74
2021/05/08 09:06:48;;;;;;;2.00;0.50;;;;;;;17.28;31.97;98901.06;4984939;28;20081;-73
2021/05/08 09:09:15;;;;;;;2.90;0.60;;;;;;;17.23;31.91;98907.84;4973432;28;20022;-73
2021/05/08 09:11:54;;;;;;;1.98;0.60;;;;;;;17.29;33.37;98912.41;4974781;28;20028;-74
2021/05/08 09:14:21;;;;;;;;;;;;;;;17.35;31.18;98911.69;4981868;28;20097;-74
2021/05/08 09:17:03;;;;;;;3.15;0.50;;;;;;;17.30;32.92;98911.41;4973998;28;19920;-74
2021/05/08 09:19:28;;;;;;;2.17;0.50;;;;;;;17.34;32.57;98910.06;4977069;28;20023;-74
2021/05/08 09:21:54;;;;;;;1.83;0.60;;;;;;;17.31;32.49;98915.66;4974116;28;20126;-73
2021/05/08 09:24:20;;;;;;;1.42;0.52;;;;;;;17.48;31.95;98917.09;4977112;28;20041;-74
2021/05/08 09:26:49;;;;;;;1.52;0.32;;;;;;;17.49;32.60;98918.75;4976158;28;20707;-74
2021/05/08 09:29:19;;;;;;;2.78;0.60;;;;;;;17.43;31.83;98916.03;4974634;28;20097;-74
2021/05/08 09:31:56;;;;;;;3.92;0.65;;;;;;;17.63;31.86;98916.28;4976894;28;20113;-73
2021/05/08 09:34:22;;;;;;;2.20;0.52;;;;;;;17.63;32.63;98897.88;4975097;28;20026;-76
2021/05/08 09:36:52;;;;;;;2.78;0.60;;;;;;;17.66;32.10;98913.31;4971668;28;20664;-75
2021/05/08 09:39:32;;;;;;;1.35;0.47;;;;;;;17.66;32.90;98908.84;4969959;28;20045;-72
2021/05/08 09:41:58;;;;;;;1.77;0.55;;;;;;;17.35;32.98;98903.78;4987481;28;20026;-72
2021/05/08 09:44:24;;;;;;;2.53;0.60;;;;;;;17.39;33.10;98912.13;4972903;28;20109;-72
2021/05/08 09:46:51;;;;;;;2.92;0.60;;;;;;;17.62;32.83;98904.97;4977982;28;20026;-72
2021/05/08 09:49:20;;;;;;;1.88;0.60;;;;;;;17.70;33.16;98904.03;4979779;28;20069;-73
2021/05/08 09:51:45;;;;;;;6.32;1.10;;;;;;;17.82;33.31;98907.03;4959561;28;20053;-73
2021/05/08 09:54:13;;;;;;;1.83;0.65;;;;;;;17.75;32.43;98896.41;4972288;28;20042;-74
2021/05/08 09:56:40;;;;;;;2.45;0.60;;;;;;;17.77;32.46;98896.25;4971281;28;20027;-73
2021/05/08 09:59:24;;;;;;;1.98;0.55;;;;;;;17.94;31.61;98897.69;4976060;28;20030;-73
2021/05/08 10:02:02;;;;;;;2.17;0.55;;;;;;;17.90;32.70;98895.63;4969216;28;20026;-73
2021/05/08 10:04:43;;;;;;;4.60;1.00;;;;;;;18.16;32.15;98903.81;4977743;28;20026;-72
2021/05/08 10:07:16;;;;;;;2.20;0.60;;;;;;;18.15;31.82;98898.72;4995605;28;20680;-75
2021/05/08 10:09:43;;;;;;;4.30;0.85;;;;;;;18.27;34.20;98886.69;4952986;28;20033;-75
2021/05/08 10:12:11;;;;;;;1.42;0.50;;;;;;;18.02;33.25;98880.97;4977289;28;20653;-72
2021/05/08 10:14:39;;;;;;;2.60;0.80;;;;;;;17.94;33.21;98891.59;4976804;28;20041;-73
2021/05/08 10:17:08;;;;;;;4.23;0.90;;;;;;;18.19;32.70;98887.63;4990744;28;20121;-74
2021/05/08 10:19:37;;;;;;;5.13;1.30;;;;;;;18.41;32.68;98877.91;4981398;28;20277;-72
2021/05/08 10:22:07;;;;;;;1.92;0.60;;;;;;;18.10;31.69;98885.31;4979639;28;20770;-73
2021/05/08 10:24:34;;;;;;;2.85;0.65;;;;;;;18.19;32.30;98881.56;4994761;28;20030;-77
2021/05/08 10:27:00;;;;;;;3.65;0.70;;;;;;;18.31;31.21;98882.69;4979213;28;20022;-78
2021/05/08 10:29:27;;;;;;;3.40;0.80;;;;;;;18.30;31.70;98872.34;4981421;28;20037;-80
2021/05/08 10:31:54;;;;;;;3.65;0.80;;;;;;;18.23;32.39;98872.28;4979433;28;20026;-79
2021/05/08 10:34:53;;;;;;;1.85;0.60;;;;;;;18.46;31.39;98872.09;4964064;28;20046;-78
2021/05/08 10:37:19;;;;;;;2.25;0.60;;;;;;;18.56;31.37;98864.69;4973989;28;20038;-76
2021/05/08 10:39:48;;;;;;;2.85;0.80;;;;;;;18.41;31.17;98862.13;4976965;28;20112;-76
2021/05/08 10:42:41;;;;;;;2.17;0.68;;;;;;;18.59;30.46;98855.59;4971417;28;20022;-78
2021/05/08 10:45:30;;;;;;;3.10;0.80;;;;;;;18.61;31.66;98856.22;4966571;28;20556;-76
2021/05/08 10:47:56;;;;;;;3.60;0.90;;;;;;;18.75;31.04;98860.59;4976968;28;20113;-77
2021/05/08 10:50:34;;;;;;;2.05;0.63;;;;;;;18.83;30.61;98871.00;4990509;28;20628;-75
2021/05/08 10:53:18;;;;;;;4.07;1.00;;;;;;;18.37;30.49;98879.31;4972878;28;20034;-75
2021/05/08 10:55:59;;;;;;;3.70;0.98;;;;;;;18.61;30.58;98845.69;4977036;28;20039;-75
2021/05/08 10:58:25;;;;;;;3.15;0.80;;;;;;;18.37;31.56;98852.97;4974086;28;20026;-74
2021/05/08 11:00:58;;;;;;;3.42;0.73;;;;;;;18.16;30.37;98835.38;4973927;28;20480;-77
2021/05/08 11:03:30;;;;;;;3.35;0.95;;;;;;;18.43;31.73;98843.50;4960531;28;20034;-75
2021/05/08 11:06:14;;;;;;;2.42;0.80;;;;;;;18.52;32.52;98847.63;4978966;28;20034;-77
2021/05/08 11:08:41;;;;;;;3.75;0.80;;;;;;;18.91;32.08;98845.50;4966774;28;20078;-76
2021/05/08 11:11:22;;;;;;;3.15;0.75;;;;;;;19.06;31.83;98830.41;4986203;28;20105;-76
2021/05/08 11:14:01;;;;;;;2.97;0.88;;;;;;;19.01;31.12;98838.09;4968240;28;20122;-77
2021/05/08 11:16:28;;;;;;;3.42;1.20;;;;;;;19.34;31.50;98819.81;4976737;28;20022;-76
2021/05/08 11:18:59;;;;;;;3.97;0.73;;;;;;;19.53;31.64;98842.00;4959685;28;20707;-77
2021/05/08 11:21:26;;;;;;;2.88;1.00;;;;;;;19.39;30.32;98835.03;4970377;28;20109;-77
2021/05/08 11:23:58;;;;;;;4.22;0.95;;;;;;;19.23;30.46;98827.47;4971262;28;20057;-77
2021/05/08 11:26:24;;;;;;;3.17;0.82;;;;;;;19.21;31.52;98832.94;4992172;28;20090;-77
2021/05/08 11:29:02;;;;;;;3.30;0.93;;;;;;;19.37;30.92;98822.06;4986358;28;20038;-76
2021/05/08 11:31:32;;;;;;;2.80;0.90;;;;;;;19.13;30.30;98830.44;4974803;28;20031;-77
2021/05/08 11:34:26;;;;;;;3.13;0.73;;;;;;;19.31;30.58;98806.19;4974051;28;20030;-78